C35

Reedsburg Municipal Airport

Reedsburg, Wisconsin, USA
METAR KC35 151215Z AUTO 00000KT 4SM BR CLR 19/19 A2994 RMK AO2 T01880188
Observed Flight Rules
Aug-15 @ 12:15 UTC (24 minutes ago) Marginal Visual Flight Rules
Visibility Clouds Conditions
4 miles
  • Clear skies
  • Mist
Temperatures Readings
Current 19°C / 66°F
Dewpoint 19°C / 66°F
Humidity 100%
Altimeter 29.94" Hg
Pressure 1014 hPa
Elevation 276
METAR KC35 151215Z AUTO 00000KT 4SM BR CLR 19/19 A2994 RMK AO2 T01880188
Observed Flight Rules
Aug-15 @ 12:15 UTC
(24 minutes ago)
MVFR
Clouds
  • Clear skies
Conditions
  • Mist
Temperature Dewpoint
19°C / 66°F 19°C / 66°F
Humidity Altimeter Pressure
100% 29.94" Hg 1014 hPa